Terminal Aerodrome Forecast
Issued by NWS

Home | Current Version | Previous Version | Graphics & Text | Print | Product List | Glossary On
Versions: 1 2 3 4 5 6 7 8 9 10 11 12 13 14
261
FTUS45 KGGW 231358 AAA
TAFSDY
TAF AMD
KSDY 231358Z 2314/2412 VRB03KT P6SM -TSRA BKN040CB BKN100
     FM231700 10010KT P6SM -SHRA BKN060
     FM232100 10010KT P6SM -SHRA BKN035
     FM240200 09006KT P6SM SCT060=

USA.gov is the U.S. government's official web portal to all federal, state and local government web resources and services.